Time;durP1;ratioP1;P1;durP2;ratioP2;P2;SDS_P1;SDS_P2;PMS_P1;PMS_P2;Temp;Humidity;BMP_temperature;BMP_pressure;BME280_temperature;BME280_humidity;BME280_pressure;Samples;Min_cycle;Max_cycle;Signal;HPM_P1;HPM_P2
2022/07/30 00:02:18;;;;;;;14.60;11.18;;;20.70;99.90;;;;;;5055886;28;20033;-55
2022/07/30 00:04:44;;;;;;;14.43;10.35;;;20.60;99.90;;;;;;5056122;28;20029;-55
2022/07/30 00:07:11;;;;;;;15.73;10.88;;;20.70;99.90;;;;;;5056142;28;20032;-55
2022/07/30 00:09:37;;;;;;;12.38;10.90;;;20.70;99.90;;;;;;5055991;28;20151;-55
2022/07/30 00:12:05;;;;;;;13.10;11.05;;;20.70;99.90;;;;;;5055652;28;20039;-55
2022/07/30 00:14:31;;;;;;;12.82;10.35;;;20.60;99.90;;;;;;5054669;28;20486;-55
2022/07/30 00:16:57;;;;;;;14.63;10.95;;;20.70;99.90;;;;;;5055907;28;20390;-55
2022/07/30 00:19:23;;;;;;;14.07;11.68;;;20.70;99.90;;;;;;5055726;28;20025;-55
2022/07/30 00:21:49;;;;;;;14.48;10.80;;;20.50;99.90;;;;;;5055769;28;20032;-55
2022/07/30 00:24:15;;;;;;;15.45;12.90;;;20.50;99.90;;;;;;5055605;28;20029;-55
2022/07/30 00:26:41;;;;;;;15.68;11.32;;;20.50;99.90;;;;;;5055872;28;20056;-55
2022/07/30 00:29:07;;;;;;;14.20;10.40;;;20.50;99.90;;;;;;5055415;28;20025;-55
2022/07/30 00:31:33;;;;;;;14.52;11.40;;;20.50;99.90;;;;;;5055456;28;20021;-55
2022/07/30 00:33:59;;;;;;;16.67;12.05;;;20.40;99.90;;;;;;5037647;28;20051;-55
2022/07/30 00:36:25;;;;;;;18.38;12.15;;;20.30;99.90;;;;;;5037540;28;20021;-55
2022/07/30 00:38:51;;;;;;;17.50;12.32;;;20.30;99.90;;;;;;5055432;28;20102;-55
2022/07/30 00:41:17;;;;;;;13.90;11.80;;;20.30;99.90;;;;;;5055312;28;20086;-55
2022/07/30 00:43:43;;;;;;;17.17;12.02;;;20.20;99.90;;;;;;5055262;28;20112;-55
2022/07/30 00:46:09;;;;;;;11.50;10.30;;;20.20;99.90;;;;;;5037599;28;20036;-55
2022/07/30 00:48:35;;;;;;;13.93;11.15;;;20.20;99.90;;;;;;5037257;28;20479;-55
2022/07/30 00:51:01;;;;;;;13.13;11.10;;;20.20;99.90;;;;;;5055036;28;20033;-55
2022/07/30 00:53:27;;;;;;;16.70;11.63;;;20.10;99.90;;;;;;5055214;28;20025;-55
2022/07/30 00:55:53;;;;;;;17.58;12.48;;;20.00;99.90;;;;;;5055467;28;20414;-55
2022/07/30 00:58:19;;;;;;;30.13;17.73;;;20.10;99.90;;;;;;5055181;28;20041;-55
2022/07/30 01:00:45;;;;;;;17.42;13.02;;;20.10;99.90;;;;;;5055113;28;20104;-55
2022/07/30 01:03:11;;;;;;;15.15;11.95;;;20.00;99.90;;;;;;5055096;28;20032;-55
2022/07/30 01:05:37;;;;;;;18.55;12.35;;;20.10;99.90;;;;;;5037008;28;20025;-55
2022/07/30 01:08:03;;;;;;;15.48;11.65;;;20.10;99.90;;;;;;5054828;28;20470;-55
2022/07/30 01:10:29;;;;;;;16.60;12.70;;;20.10;99.90;;;;;;5054850;28;20033;-55
2022/07/30 01:12:57;;;;;;;16.27;12.48;;;20.10;99.90;;;;;;5054731;28;20039;-55
2022/07/30 01:15:24;;;;;;;15.10;12.38;;;20.10;99.90;;;;;;5054738;28;20474;-55
2022/07/30 01:17:53;;;;;;;15.73;11.30;;;20.00;99.90;;;;;;5054805;28;20422;-55
2022/07/30 01:20:42;;;;;;;17.02;12.50;;;20.00;99.90;;;;;;5054813;28;20068;-55
2022/07/30 01:23:17;;;;;;;18.48;12.65;;;19.90;99.90;;;;;;5054706;28;20099;-55
2022/07/30 01:25:49;;;;;;;19.90;12.73;;;19.80;99.90;;;;;;5054379;28;20035;-55
2022/07/30 01:28:19;;;;;;;21.80;13.43;;;19.80;99.90;;;;;;5054656;28;20037;-55
2022/07/30 01:30:45;;;;;;;;;;;19.80;99.90;;;;;;5037018;28;20166;-55
2022/07/30 01:33:15;;;;;;;20.45;14.52;;;19.70;99.90;;;;;;5053255;28;19912;-55
2022/07/30 01:35:45;;;;;;;17.50;13.27;;;19.60;99.90;;;;;;5054573;28;20029;-55
2022/07/30 01:38:13;;;;;;;16.48;13.25;;;19.50;99.90;;;;;;5054326;28;20044;-56
2022/07/30 01:40:39;;;;;;;16.35;13.13;;;19.40;99.90;;;;;;5054473;28;20029;-55
2022/07/30 01:43:07;;;;;;;19.42;13.70;;;19.40;99.90;;;;;;5054242;28;20478;-55
2022/07/30 01:45:35;;;;;;;18.10;13.18;;;19.40;99.90;;;;;;5054433;28;20025;-55
2022/07/30 01:48:04;;;;;;;23.88;13.15;;;19.50;99.90;;;;;;5054161;28;20120;-55
2022/07/30 01:50:32;;;;;;;15.07;12.38;;;19.50;99.90;;;;;;5036487;28;20037;-55
2022/07/30 01:52:59;;;;;;;21.25;13.10;;;19.50;99.90;;;;;;5036261;28;20037;-55
2022/07/30 01:55:39;;;;;;;19.13;13.50;;;19.50;99.90;;;;;;5053030;28;20506;-55
2022/07/30 01:58:09;;;;;;;18.40;12.90;;;19.40;99.90;;;;;;5036250;28;20029;-55
2022/07/30 02:00:41;;;;;;;20.67;13.48;;;19.40;99.90;;;;;;5036250;28;20068;-55
2022/07/30 02:03:08;;;;;;;16.00;13.05;;;19.40;99.90;;;;;;5036294;28;20487;-55
2022/07/30 02:05:36;;;;;;;19.58;12.82;;;19.30;99.90;;;;;;5054199;28;20025;-55
2022/07/30 02:08:26;;;;;;;17.40;13.60;;;19.30;99.90;;;;;;5036070;28;20033;-55
2022/07/30 02:11:04;;;;;;;18.85;13.70;;;19.40;99.90;;;;;;5036188;28;20029;-55
2022/07/30 02:13:32;;;;;;;21.65;14.50;;;19.30;99.90;;;;;;5036017;28;20029;-55
2022/07/30 02:16:10;;;;;;;16.30;13.23;;;19.40;99.90;;;;;;5054122;28;20025;-55
2022/07/30 02:18:42;;;;;;;17.30;12.82;;;19.30;99.90;;;;;;5053957;28;20036;-55
2022/07/30 02:21:11;;;;;;;22.42;12.20;;;19.30;99.90;;;;;;5052819;28;20034;-55
2022/07/30 02:23:43;;;;;;;16.70;12.52;;;19.30;99.90;;;;;;5035938;28;20032;-55
2022/07/30 02:26:14;;;;;;;13.38;11.98;;;19.20;99.90;;;;;;5036044;28;20457;-55
2022/07/30 02:28:44;;;;;;;13.95;12.02;;;19.20;99.90;;;;;;5036037;28;20029;-55
2022/07/30 02:31:11;;;;;;;20.55;12.60;;;19.20;99.90;;;;;;5036022;28;20033;-55
2022/07/30 02:33:40;;;;;;;15.50;12.25;;;19.10;99.90;;;;;;5036126;28;20029;-55
2022/07/30 02:36:09;;;;;;;15.75;12.05;;;19.10;99.90;;;;;;5035898;28;20032;-55
2022/07/30 02:38:38;;;;;;;16.42;12.27;;;19.10;99.90;;;;;;5057064;28;20057;-55
2022/07/30 02:41:07;;;;;;;17.60;12.65;;;19.00;99.90;;;;;;5057659;28;20048;-55
2022/07/30 02:43:35;;;;;;;14.43;12.48;;;19.10;99.90;;;;;;5056262;28;20029;-55
2022/07/30 02:46:04;;;;;;;15.35;11.88;;;19.10;99.90;;;;;;5039776;28;20043;-55
2022/07/30 02:48:52;;;;;;;17.02;12.77;;;19.10;99.90;;;;;;5039671;28;20402;-55
2022/07/30 02:51:20;;;;;;;15.38;12.57;;;19.20;99.90;;;;;;5039492;28;20692;-55
2022/07/30 02:53:48;;;;;;;18.50;12.00;;;19.20;99.90;;;;;;5039619;28;20048;-55
2022/07/30 02:56:17;;;;;;;14.23;12.10;;;19.10;99.90;;;;;;5057360;28;20033;-55
2022/07/30 02:58:44;;;;;;;13.80;11.82;;;19.10;99.90;;;;;;5056023;28;20021;-55
2022/07/30 03:01:14;;;;;;;15.27;12.43;;;19.10;99.90;;;;;;5039457;28;20204;-55
2022/07/30 03:03:42;;;;;;;13.32;12.02;;;19.10;99.90;;;;;;5057277;28;20025;-55
2022/07/30 03:06:09;;;;;;;17.25;12.45;;;19.10;99.90;;;;;;5057140;28;20041;-55
2022/07/30 03:08:36;;;;;;;13.90;11.82;;;19.20;99.90;;;;;;5057056;28;20037;-55
2022/07/30 03:11:04;;;;;;;15.27;12.45;;;19.20;99.90;;;;;;5057079;28;20037;-55
2022/07/30 03:13:30;;;;;;;16.27;12.10;;;19.20;99.90;;;;;;5055617;28;20037;-55
2022/07/30 03:15:57;;;;;;;19.17;12.57;;;19.20;99.90;;;;;;5055843;28;20477;-55
2022/07/30 03:18:26;;;;;;;20.67;13.10;;;19.20;99.90;;;;;;5039049;28;20021;-55
2022/07/30 03:20:55;;;;;;;17.05;13.05;;;19.20;99.90;;;;;;5039424;28;20406;-55
2022/07/30 03:23:22;;;;;;;16.75;12.88;;;19.20;99.90;;;;;;5056773;28;20103;-55
2022/07/30 03:26:00;;;;;;;17.42;12.30;;;19.30;99.90;;;;;;5038968;28;20037;-55
2022/07/30 03:28:29;;;;;;;18.35;12.45;;;19.10;99.90;;;;;;5038951;28;20494;-55
2022/07/30 03:30:56;;;;;;;20.73;13.15;;;19.00;99.90;;;;;;5056796;28;20029;-55
2022/07/30 03:33:23;;;;;;;16.83;12.68;;;19.00;99.90;;;;;;5056662;28;20094;-55
2022/07/30 03:35:50;;;;;;;19.20;12.50;;;18.90;99.90;;;;;;5038711;28;20036;-55
2022/07/30 03:38:16;;;;;;;16.08;12.85;;;18.80;99.90;;;;;;5056586;28;20087;-55
2022/07/30 03:40:44;;;;;;;17.67;13.80;;;18.80;99.90;;;;;;5038562;28;20116;-55
2022/07/30 03:43:11;;;;;;;14.07;12.38;;;18.70;99.90;;;;;;5038837;28;20474;-55
2022/07/30 03:45:40;;;;;;;15.73;12.48;;;18.80;99.90;;;;;;5038615;28;20548;-55
2022/07/30 03:48:08;;;;;;;16.83;12.43;;;18.80;99.90;;;;;;5038440;28;20044;-55
2022/07/30 03:50:39;;;;;;;15.50;13.02;;;18.80;99.90;;;;;;5038535;28;20085;-55
2022/07/30 03:53:06;;;;;;;17.85;12.82;;;18.80;99.90;;;;;;5056190;28;20048;-55
2022/07/30 03:55:41;;;;;;;16.10;13.35;;;18.80;99.90;;;;;;5038458;28;20074;-55
2022/07/30 03:58:25;;;;;;;21.75;13.55;;;18.80;99.90;;;;;;5056617;28;20055;-55
2022/07/30 04:00:51;;;;;;;18.35;13.98;;;18.80;99.90;;;;;;5038334;28;20029;-55
2022/07/30 04:03:29;;;;;;;18.77;13.55;;;18.80;99.90;;;;;;5038291;28;20059;-55
2022/07/30 04:05:59;;;;;;;17.83;12.48;;;18.80;99.90;;;;;;5038398;28;20037;-55
2022/07/30 04:08:26;;;;;;;23.17;13.32;;;18.80;99.90;;;;;;5038255;28;20367;-55
2022/07/30 04:10:53;;;;;;;22.20;13.93;;;18.90;99.90;;;;;;5038273;28;20466;-55
2022/07/30 04:13:39;;;;;;;16.20;13.50;;;18.90;99.90;;;;;;5055936;28;20049;-55
2022/07/30 04:16:43;;;;;;;19.63;13.80;;;18.90;99.90;;;;;;5037931;28;20028;-55
2022/07/30 04:19:24;;;;;;;16.75;13.02;;;18.90;99.90;;;;;;5054787;28;20057;-55
2022/07/30 04:21:54;;;;;;;16.15;13.07;;;18.90;99.90;;;;;;5038011;28;20025;-55
2022/07/30 04:24:22;;;;;;;17.40;13.80;;;19.00;99.90;;;;;;5037768;28;20033;-55
2022/07/30 04:26:50;;;;;;;19.48;14.40;;;19.00;99.90;;;;;;5037931;28;20036;-55
2022/07/30 04:29:17;;;;;;;19.50;13.82;;;18.90;99.90;;;;;;5054477;28;20036;-55
2022/07/30 04:31:44;;;;;;;16.42;13.27;;;18.90;99.90;;;;;;5055458;28;20482;-55
2022/07/30 04:34:28;;;;;;;20.27;13.82;;;18.90;99.90;;;;;;5055664;28;20129;-55
2022/07/30 04:36:55;;;;;;;16.98;14.82;;;19.00;99.90;;;;;;5037614;28;20053;-55
2022/07/30 04:39:21;;;;;;;22.38;15.25;;;19.10;99.90;;;;;;5047316;28;20048;-55
2022/07/30 04:41:47;;;;;;;24.95;16.27;;;19.20;99.90;;;;;;5054115;28;20502;-55
2022/07/30 04:44:31;;;;;;;21.52;14.38;;;19.20;99.90;;;;;;5054076;28;20107;-55
2022/07/30 04:47:32;;;;;;;18.83;14.13;;;19.30;99.90;;;;;;4993595;28;20046;-55
2022/07/30 04:50:27;;;;;;;19.65;14.27;;;19.40;99.90;;;;;;5044171;28;20068;-55
2022/07/30 04:52:55;;;;;;;19.90;14.68;;;19.50;99.90;;;;;;5054160;28;20060;-55
2022/07/30 04:55:33;;;;;;;18.65;14.25;;;19.70;99.90;;;;;;5053920;28;20029;-55
2022/07/30 04:58:01;;;;;;;23.33;14.48;;;19.80;99.90;;;;;;5053837;28;20387;-55
2022/07/30 05:00:31;;;;;;;27.02;16.02;;;19.90;99.90;;;;;;5053286;28;20033;-55
2022/07/30 05:02:57;;;;;;;27.13;15.50;;;20.10;99.90;;;;;;5053787;28;20033;-55
2022/07/30 05:05:24;;;;;;;28.45;15.27;;;20.20;99.90;;;;;;5054966;28;20055;-55
2022/07/30 05:07:53;;;;;;;20.58;15.00;;;20.30;99.90;;;;;;5053798;28;20025;-55
2022/07/30 05:10:20;;;;;;;18.08;14.73;;;20.50;99.90;;;;;;5053465;28;20029;-55
2022/07/30 05:12:46;;;;;;;19.75;14.52;;;20.60;99.90;;;;;;5053477;28;20124;-55
2022/07/30 05:15:15;;;;;;;23.60;14.45;;;20.70;99.90;;;;;;5053752;28;20090;-56
2022/07/30 05:17:41;;;;;;;22.92;15.40;;;20.80;99.90;;;;;;5053475;28;20025;-56
2022/07/30 05:20:09;;;;;;;21.35;15.45;;;21.00;99.90;;;;;;5053431;28;20049;-55
2022/07/30 05:22:55;;;;;;;17.02;13.40;;;21.10;99.90;;;;;;5043896;28;20043;-56
2022/07/30 05:25:22;;;;;;;22.48;16.15;;;21.20;99.90;;;;;;5053438;28;20114;-55
2022/07/30 05:27:51;;;;;;;19.83;14.48;;;21.40;99.90;;;;;;5053347;28;20044;-56
2022/07/30 05:30:17;;;;;;;23.60;15.30;;;21.50;99.90;;;;;;5053222;28;20124;-56
2022/07/30 05:32:47;;;;;;;18.33;14.32;;;21.50;99.90;;;;;;5053318;28;20040;-56
2022/07/30 05:35:13;;;;;;;18.33;13.60;;;21.50;99.90;;;;;;5053120;28;20025;-56
2022/07/30 05:37:39;;;;;;;21.85;14.73;;;21.60;99.90;;;;;;5053239;28;20036;-56
2022/07/30 05:40:06;;;;;;;15.25;12.68;;;21.80;99.90;;;;;;5053109;28;20073;-56
2022/07/30 05:42:51;;;;;;;18.38;13.35;;;22.00;99.90;;;;;;5053049;28;20037;-56
2022/07/30 05:45:17;;;;;;;24.77;13.27;;;22.10;99.90;;;;;;5053142;28;20037;-56
2022/07/30 05:47:43;;;;;;;20.13;13.63;;;22.30;99.90;;;;;;5052945;28;20495;-56
2022/07/30 05:50:09;;;;;;;18.33;13.35;;;22.40;99.90;;;;;;5053124;28;20033;-56
2022/07/30 05:52:35;;;;;;;22.45;14.35;;;22.60;99.90;;;;;;5052964;28;20090;-56
2022/07/30 05:55:20;;;;;;;17.30;13.65;;;22.70;99.90;;;;;;5052929;28;20021;-56
2022/07/30 05:58:03;;;;;;;21.63;13.00;;;22.80;99.90;;;;;;5052971;28;20036;-56
2022/07/30 06:00:30;;;;;;;19.83;13.30;;;22.90;99.90;;;;;;5053160;28;20044;-56
2022/07/30 06:02:56;;;;;;;20.45;12.02;;;23.10;99.90;;;;;;5054273;28;20029;-56
2022/07/30 06:05:22;;;;;;;14.52;11.70;;;23.20;99.90;;;;;;5054491;28;20063;-56
2022/07/30 06:07:48;;;;;;;17.45;12.95;;;23.40;99.90;;;;;;5053998;28;20572;-56
2022/07/30 06:10:16;;;;;;;16.92;12.73;;;23.60;99.90;;;;;;5052895;28;20037;-56
2022/07/30 06:12:42;;;;;;;15.68;11.50;;;23.70;99.90;;;;;;5056443;28;20040;-56
2022/07/30 06:15:10;;;;;;;16.08;11.13;;;23.90;99.90;;;;;;5056905;28;20079;-56
2022/07/30 06:17:45;;;;;;;17.63;12.77;;;24.00;99.90;;;;;;5057979;28;20078;-56
2022/07/30 06:20:21;;;;;;;21.67;12.27;;;24.10;99.90;;;;;;5056993;28;20051;-56
2022/07/30 06:23:07;;;;;;;16.40;12.10;;;24.30;99.30;;;;;;5057375;28;20390;-56
2022/07/30 06:25:52;;;;;;;16.45;11.00;;;24.50;97.50;;;;;;5058156;28;20040;-56
2022/07/30 06:28:18;;;;;;;14.85;11.18;;;24.70;97.90;;;;;;5056561;28;20040;-56
2022/07/30 06:30:46;;;;;;;19.98;12.25;;;24.80;98.10;;;;;;5056409;28;20048;-56
2022/07/30 06:33:14;;;;;;;16.80;12.27;;;25.00;97.80;;;;;;5056702;28;20471;-56
2022/07/30 06:35:40;;;;;;;17.30;12.73;;;25.10;97.20;;;;;;5056376;28;20116;-56
2022/07/30 06:38:07;;;;;;;19.77;13.65;;;25.30;96.00;;;;;;5056416;28;20064;-56
2022/07/30 06:40:38;;;;;;;23.40;15.23;;;25.40;94.50;;;;;;5039765;28;20025;-56
2022/07/30 06:43:18;;;;;;;18.30;14.15;;;25.60;93.00;;;;;;5039649;28;20071;-56
2022/07/30 06:46:02;;;;;;;27.95;15.95;;;25.70;91.50;;;;;;5039478;28;20029;-56
2022/07/30 06:48:41;;;;;;;21.58;14.93;;;25.90;90.80;;;;;;5039877;28;20390;-56
2022/07/30 06:51:07;;;;;;;31.23;16.30;;;26.10;90.60;;;;;;5039556;28;20036;-56
2022/07/30 06:53:38;;;;;;;22.80;16.20;;;26.40;89.60;;;;;;5039463;28;20053;-56
2022/07/30 06:56:11;;;;;;;23.55;16.55;;;26.50;86.70;;;;;;5057599;28;20040;-56
2022/07/30 06:58:47;;;;;;;22.05;14.57;;;26.70;86.90;;;;;;5039454;28;20032;-56
2022/07/30 07:01:36;;;;;;;27.98;14.88;;;26.90;84.20;;;;;;5028644;28;20037;-56
2022/07/30 07:04:03;;;;;;;22.17;14.10;;;27.20;82.20;;;;;;5039170;28;20441;-56
2022/07/30 07:06:29;;;;;;;15.95;11.82;;;27.40;79.00;;;;;;5039238;28;20029;-56
2022/07/30 07:08:55;;;;;;;25.27;14.25;;;27.60;78.00;;;;;;5039359;28;20021;-56
2022/07/30 07:11:30;;;;;;;20.90;12.48;;;27.80;77.30;;;;;;5039068;28;20029;-56
2022/07/30 07:13:57;;;;;;;19.98;10.80;;;28.00;75.10;;;;;;5039119;28;20060;-56
2022/07/30 07:16:33;;;;;;;14.05;10.13;;;28.30;71.90;;;;;;5039080;28;20494;-56
2022/07/30 07:19:07;;;;;;;14.10;10.02;;;28.50;68.70;;;;;;5038858;28;20029;-57
2022/07/30 07:21:33;;;;;;;17.25;9.98;;;28.60;67.30;;;;;;5038957;28;20055;-57
2022/07/30 07:24:01;;;;;;;11.20;9.15;;;28.70;66.20;;;;;;5038453;28;20025;-56
2022/07/30 07:27:06;;;;;;;16.45;8.50;;;28.60;66.60;;;;;;5038901;28;20032;-56
2022/07/30 07:29:33;;;;;;;10.07;8.93;;;29.00;64.20;;;;;;5038908;28;20493;-57
2022/07/30 07:32:01;;;;;;;13.23;9.10;;;29.20;62.60;;;;;;5055193;28;20399;-57
2022/07/30 07:34:27;;;;;;;10.02;8.68;;;29.40;62.30;;;;;;5038899;28;20115;-57
2022/07/30 07:36:53;;;;;;;21.50;8.95;;;29.50;62.20;;;;;;5038940;28;20387;-57
2022/07/30 07:39:21;;;;;;;12.20;8.63;;;29.70;60.90;;;;;;5038422;28;20146;-57
2022/07/30 07:41:48;;;;;;;10.98;9.00;;;29.90;60.90;;;;;;5038759;28;20499;-57
2022/07/30 07:44:14;;;;;;;12.75;8.70;;;30.30;59.00;;;;;;5038345;28;20509;-57
2022/07/30 07:46:42;;;;;;;16.05;9.77;;;30.60;60.00;;;;;;5038587;28;20048;-57
2022/07/30 07:49:08;;;;;;;12.00;9.45;;;31.00;58.30;;;;;;5038555;28;20135;-57
2022/07/30 07:51:39;;;;;;;24.63;12.88;;;31.10;56.70;;;;;;5038637;28;20044;-57
2022/07/30 07:54:08;;;;;;;23.58;10.68;;;31.20;56.10;;;;;;5038272;28;20083;-57
2022/07/30 07:56:34;;;;;;;12.40;8.98;;;31.50;56.30;;;;;;5055009;28;20029;-57
2022/07/30 07:59:00;;;;;;;13.25;8.05;;;31.60;54.80;;;;;;5038281;28;20025;-57
2022/07/30 08:01:27;;;;;;;14.88;8.60;;;31.70;53.80;;;;;;5056215;28;20082;-57
2022/07/30 08:04:17;;;;;;;15.50;10.90;;;32.00;53.90;;;;;;5018398;28;20102;-57
2022/07/30 08:07:02;;;;;;;15.60;10.02;;;32.00;52.80;;;;;;5056294;28;20048;-57
2022/07/30 08:09:48;;;;;;;15.48;9.85;;;32.30;52.70;;;;;;5024645;28;20037;-57
2022/07/30 08:12:20;;;;;;;12.55;8.10;;;32.50;51.60;;;;;;5038225;28;20037;-57
2022/07/30 08:15:08;;;;;;;18.85;8.15;;;32.50;51.20;;;;;;5055289;28;20033;-57
2022/07/30 08:17:42;;;;;;;16.67;8.13;;;32.30;51.60;;;;;;5056159;28;20033;-57
2022/07/30 08:20:21;;;;;;;17.25;8.23;;;32.40;51.50;;;;;;5038095;28;20024;-57
2022/07/30 08:22:47;;;;;;;16.95;8.32;;;32.50;51.10;;;;;;5055757;28;20399;-57
2022/07/30 08:25:15;;;;;;;15.05;8.07;;;32.40;51.30;;;;;;5037930;28;20138;-57
2022/07/30 08:27:43;;;;;;;15.25;7.88;;;32.50;51.20;;;;;;5037956;28;20124;-57
2022/07/30 08:30:10;;;;;;;9.98;7.07;;;32.50;50.50;;;;;;5037694;28;20033;-57
2022/07/30 08:32:37;;;;;;;17.38;8.77;;;32.40;50.40;;;;;;5037631;28;20033;-57
2022/07/30 08:35:04;;;;;;;21.02;8.27;;;32.20;50.30;;;;;;5036629;28;20031;-57
2022/07/30 08:37:31;;;;;;;10.85;7.10;;;32.20;49.10;;;;;;5037525;28;20021;-57
2022/07/30 08:39:57;;;;;;;10.77;6.45;;;31.90;49.90;;;;;;5052227;28;20047;-57
2022/07/30 08:42:23;;;;;;;16.77;7.32;;;32.00;50.50;;;;;;5070727;28;20040;-57
2022/07/30 08:44:53;;;;;;;14.70;7.13;;;32.20;50.50;;;;;;5053917;28;20065;-57
2022/07/30 08:47:26;;;;;;;9.50;6.18;;;32.50;50.50;;;;;;5054011;28;20048;-57
2022/07/30 08:50:08;;;;;;;18.35;8.52;;;32.50;49.30;;;;;;5055330;28;20470;-57
2022/07/30 08:52:39;;;;;;;9.82;7.03;;;32.30;50.10;;;;;;5053806;28;20064;-57
2022/07/30 08:55:07;;;;;;;18.50;8.15;;;32.10;50.60;;;;;;5053877;28;20506;-57
2022/07/30 08:57:34;;;;;;;10.48;7.53;;;32.00;51.60;;;;;;5055167;28;20052;-57
2022/07/30 09:00:02;;;;;;;16.63;8.10;;;31.90;51.60;;;;;;5053772;28;20461;-56
2022/07/30 09:02:31;;;;;;;11.75;8.02;;;31.70;52.50;;;;;;5055239;28;20053;-57
2022/07/30 09:05:03;;;;;;;12.98;7.43;;;31.20;52.50;;;;;;5053678;28;20033;-56
2022/07/30 09:07:30;;;;;;;14.07;8.98;;;30.90;53.40;;;;;;5053780;28;20057;-56
2022/07/30 09:09:57;;;;;;;18.92;8.45;;;30.70;54.50;;;;;;5053658;28;20033;-57
2022/07/30 09:12:32;;;;;;;11.48;8.02;;;30.90;54.90;;;;;;5053496;28;20078;-57
2022/07/30 09:15:05;;;;;;;14.52;8.43;;;30.90;54.80;;;;;;5053678;28;20047;-57
2022/07/30 09:17:54;;;;;;;12.13;7.70;;;30.80;54.60;;;;;;5053723;28;20063;-56
2022/07/30 09:20:25;;;;;;;9.88;7.78;;;31.10;54.70;;;;;;5070130;28;20476;-56
2022/07/30 09:22:55;;;;;;;17.95;8.35;;;30.90;54.60;;;;;;5053319;28;20029;-56
2022/07/30 09:25:41;;;;;;;14.23;7.50;;;31.20;55.20;;;;;;5054601;28;20040;-57
2022/07/30 09:28:31;;;;;;;9.63;7.80;;;31.20;54.30;;;;;;5054847;28;20091;-56
2022/07/30 09:31:13;;;;;;;9.73;7.75;;;31.10;55.10;;;;;;5054589;28;20470;-56
2022/07/30 09:33:57;;;;;;;16.27;7.70;;;31.30;54.60;;;;;;5054504;28;20128;-56
2022/07/30 09:36:42;;;;;;;12.15;8.15;;;31.30;54.80;;;;;;5054485;28;20036;-56
2022/07/30 09:39:33;;;;;;;17.15;7.82;;;31.30;54.70;;;;;;5053780;28;20518;-56
2022/07/30 09:42:20;;;;;;;12.57;7.30;;;31.00;55.10;;;;;;5054552;28;20454;-56
2022/07/30 09:44:47;;;;;;;7.65;6.40;;;31.00;54.50;;;;;;5036615;28;20269;-56
2022/07/30 09:47:37;;;;;;;12.50;6.25;;;30.80;54.80;;;;;;5036179;28;20398;-56
2022/07/30 09:50:05;;;;;;;11.38;7.00;;;30.80;54.80;;;;;;5053101;28;20029;-56
2022/07/30 09:52:31;;;;;;;9.90;6.25;;;30.70;55.40;;;;;;5036339;28;20480;-56
2022/07/30 09:54:58;;;;;;;13.18;6.85;;;30.60;55.60;;;;;;5036230;28;20029;-56
2022/07/30 09:57:27;;;;;;;26.30;8.10;;;30.40;56.00;;;;;;5036541;28;20057;-56
2022/07/30 09:59:56;;;;;;;11.00;7.38;;;30.50;57.30;;;;;;5052906;28;20029;-56
2022/07/30 10:02:30;;;;;;;6.82;5.43;;;30.40;55.30;;;;;;5036404;28;20048;-56
2022/07/30 10:05:17;;;;;;;17.55;7.03;;;30.40;54.60;;;;;;5054182;28;20048;-56
2022/07/30 10:07:51;;;;;;;9.45;6.13;;;30.30;55.40;;;;;;5052890;28;20029;-56
2022/07/30 10:10:19;;;;;;;7.78;5.60;;;30.20;55.00;;;;;;5036129;28;20116;-56
2022/07/30 10:12:47;;;;;;;8.50;5.45;;;30.00;55.50;;;;;;5036185;28;20056;-56
2022/07/30 10:15:17;;;;;;;9.43;6.03;;;30.00;55.20;;;;;;5052792;28;20029;-56
2022/07/30 10:17:47;;;;;;;17.52;7.10;;;29.80;55.10;;;;;;5036086;28;20029;-56
2022/07/30 10:20:22;;;;;;;10.82;4.80;;;29.60;57.00;;;;;;5036225;28;20455;-56
2022/07/30 10:23:28;;;;;;;6.97;5.35;;;29.60;55.10;;;;;;5053770;28;20048;-56
2022/07/30 10:26:15;;;;;;;5.97;5.05;;;29.40;55.20;;;;;;5022553;28;20040;-56
2022/07/30 10:29:00;;;;;;;7.90;4.72;;;29.40;57.50;;;;;;5053994;28;20044;-56
2022/07/30 10:31:26;;;;;;;9.15;6.28;;;29.30;56.90;;;;;;5053893;28;20029;-56
2022/07/30 10:33:52;;;;;;;8.65;6.18;;;29.30;58.40;;;;;;5053927;28;20056;-56
2022/07/30 10:36:19;;;;;;;11.18;6.03;;;29.10;57.10;;;;;;5053924;28;20049;-56
2022/07/30 10:38:46;;;;;;;9.00;6.32;;;29.00;57.90;;;;;;5053704;28;20116;-56
2022/07/30 10:41:21;;;;;;;10.50;7.18;;;28.80;59.50;;;;;;5053884;28;20112;-56
2022/07/30 10:44:12;;;;;;;7.03;5.82;;;28.60;61.40;;;;;;5053671;28;20033;-56
2022/07/30 10:47:05;;;;;;;18.88;8.07;;;28.50;62.90;;;;;;5053827;28;20033;-56
2022/07/30 10:49:31;;;;;;;11.68;6.82;;;28.60;65.50;;;;;;5053757;28;20028;-56
2022/07/30 10:51:57;;;;;;;12.27;7.28;;;28.70;64.80;;;;;;5053569;28;20033;-56
2022/07/30 10:54:46;;;;;;;7.85;6.53;;;28.70;66.20;;;;;;5053701;28;20478;-56
2022/07/30 10:57:18;;;;;;;23.02;8.55;;;28.80;63.60;;;;;;5053867;28;20451;-56
2022/07/30 10:59:57;;;;;;;13.93;6.35;;;28.90;63.50;;;;;;5056986;28;20025;-56
2022/07/30 11:02:28;;;;;;;14.95;7.13;;;28.90;63.70;;;;;;5057394;28;20067;-56
2022/07/30 11:05:19;;;;;;;13.13;6.47;;;28.90;64.60;;;;;;5056008;28;20033;-56
2022/07/30 11:07:45;;;;;;;6.82;5.65;;;29.00;65.10;;;;;;5057097;28;20029;-56
2022/07/30 11:10:37;;;;;;;8.82;6.18;;;28.90;62.30;;;;;;5057335;28;20025;-56
2022/07/30 11:13:05;;;;;;;11.05;5.95;;;28.90;64.50;;;;;;5056963;28;20036;-56
2022/07/30 11:15:55;;;;;;;9.65;6.28;;;28.70;63.90;;;;;;5056985;28;20466;-56
2022/07/30 11:18:23;;;;;;;9.90;6.80;;;28.60;63.40;;;;;;5056904;28;20029;-56
2022/07/30 11:21:16;;;;;;;10.95;6.60;;;28.60;63.90;;;;;;5056974;28;20032;-56
2022/07/30 11:23:44;;;;;;;12.77;7.43;;;28.50;64.90;;;;;;5052496;28;20040;-56
2022/07/30 11:26:30;;;;;;;21.73;8.27;;;28.50;65.40;;;;;;5056937;28;20032;-56
2022/07/30 11:28:56;;;;;;;16.85;8.45;;;28.50;66.20;;;;;;5056710;28;20044;-56
2022/07/30 11:31:34;;;;;;;16.13;7.78;;;28.60;65.90;;;;;;5056656;28;20029;-56
2022/07/30 11:34:18;;;;;;;13.23;7.28;;;28.60;64.70;;;;;;5056805;28;20059;-56
2022/07/30 11:37:17;;;;;;;33.55;9.30;;;28.60;65.30;;;;;;5056816;28;20021;-56
2022/07/30 11:39:55;;;;;;;12.05;6.32;;;28.80;64.50;;;;;;5040840;28;20037;-56
2022/07/30 11:42:26;;;;;;;11.75;7.20;;;28.90;64.20;;;;;;5056480;28;20021;-56
2022/07/30 11:45:12;;;;;;;14.70;7.32;;;28.90;62.20;;;;;;5056567;28;20055;-56
2022/07/30 11:47:39;;;;;;;11.48;7.10;;;28.90;63.50;;;;;;5056616;28;20092;-56
2022/07/30 11:50:05;;;;;;;12.93;6.88;;;29.00;61.00;;;;;;5056534;28;20546;-56
2022/07/30 11:52:32;;;;;;;13.10;6.43;;;29.00;60.10;;;;;;5056206;28;20386;-56
2022/07/30 11:54:58;;;;;;;20.27;7.72;;;29.00;59.40;;;;;;5056410;28;20036;-56
2022/07/30 11:57:40;;;;;;;17.17;6.93;;;28.90;60.40;;;;;;5056349;28;20029;-56
2022/07/30 12:00:07;;;;;;;12.05;7.13;;;29.20;60.90;;;;;;5056210;28;20021;-56
2022/07/30 12:02:40;;;;;;;13.68;6.78;;;29.20;57.90;;;;;;5055930;28;20025;-56
2022/07/30 12:05:06;;;;;;;7.70;5.35;;;29.20;58.70;;;;;;5056413;28;20092;-56
2022/07/30 12:07:32;;;;;;;10.40;6.22;;;29.30;58.90;;;;;;5056242;28;20196;-56
2022/07/30 12:10:16;;;;;;;11.98;7.13;;;29.30;57.60;;;;;;5056073;28;20037;-56
2022/07/30 12:12:43;;;;;;;17.98;8.35;;;29.20;57.10;;;;;;5055783;28;20025;-56
2022/07/30 12:15:10;;;;;;;11.65;6.22;;;29.10;58.10;;;;;;5055963;28;20032;-56
2022/07/30 12:17:45;;;;;;;8.77;6.25;;;29.20;59.10;;;;;;5055827;28;20123;-56
2022/07/30 12:20:16;;;;;;;13.65;7.78;;;29.10;58.30;;;;;;5055885;28;20500;-56
2022/07/30 12:22:42;;;;;;;27.67;11.73;;;28.90;58.60;;;;;;5055761;28;20040;-56
2022/07/30 12:25:09;;;;;;;25.10;11.05;;;28.90;58.80;;;;;;5055826;28;20036;-56
2022/07/30 12:27:35;;;;;;;20.55;11.15;;;28.80;59.60;;;;;;5055662;28;20437;-56
2022/07/30 12:30:02;;;;;;;21.58;10.88;;;28.50;59.80;;;;;;5055620;28;20029;-56
2022/07/30 12:32:30;;;;;;;21.02;11.27;;;28.40;59.90;;;;;;5055597;28;20104;-56
2022/07/30 12:34:56;;;;;;;17.10;8.05;;;28.30;60.60;;;;;;5054410;28;20075;-56
2022/07/30 12:37:23;;;;;;;16.45;7.85;;;28.20;60.20;;;;;;5055452;28;20128;-56
2022/07/30 12:40:03;;;;;;;12.02;6.78;;;28.10;61.30;;;;;;5055254;28;20103;-56
2022/07/30 12:42:29;;;;;;;21.52;8.38;;;28.00;61.70;;;;;;5055452;28;20060;-56
2022/07/30 12:44:55;;;;;;;13.73;7.20;;;27.90;61.80;;;;;;5055558;28;20028;-56
2022/07/30 12:47:27;;;;;;;9.88;6.00;;;27.90;62.00;;;;;;5055280;28;20033;-56
2022/07/30 12:49:58;;;;;;;17.42;7.55;;;27.80;61.80;;;;;;5055275;28;20037;-56
2022/07/30 12:52:29;;;;;;;18.48;7.07;;;27.80;62.10;;;;;;5055232;28;20033;-56
2022/07/30 12:55:07;;;;;;;17.40;7.68;;;27.60;63.60;;;;;;5055039;28;20040;-56
2022/07/30 12:58:02;;;;;;;15.10;7.45;;;27.70;63.90;;;;;;5055188;28;20029;-56